createdAt,value
2022-11-15T00:04:45.954Z,101982.31
2022-11-15T00:10:05.877Z,101975.22
2022-11-15T00:15:23.124Z,101971.53
2022-11-15T00:20:40.672Z,101963.97
2022-11-15T00:26:00.162Z,101961.69
2022-11-15T00:31:18.420Z,101967.16
2022-11-15T00:36:38.926Z,101950.22
2022-11-15T00:41:55.234Z,101951.78
2022-11-15T00:47:12.164Z,101947.63
2022-11-15T00:52:28.882Z,101946.34
2022-11-15T00:57:45.567Z,101936.88
2022-11-15T01:03:06.165Z,101948.34
2022-11-15T01:08:23.623Z,101942.09
2022-11-15T01:13:43.880Z,101936.63
2022-11-15T01:19:01.941Z,101931.19
2022-11-15T01:24:18.556Z,101940.44
2022-11-15T01:29:42.420Z,101928.00
2022-11-15T01:35:00.251Z,101916.31
2022-11-15T01:40:17.798Z,101920.56
2022-11-15T01:45:34.495Z,101909.41
2022-11-15T01:50:50.244Z,101914.94
2022-11-15T01:56:13.469Z,101913.53
2022-11-15T02:01:36.362Z,101908.25
2022-11-15T02:06:54.328Z,101903.00
2022-11-15T02:12:13.432Z,101901.84
2022-11-15T02:17:36.549Z,101900.66
2022-11-15T02:23:11.562Z,101895.31
2022-11-15T02:28:40.042Z,101890.84
2022-11-15T02:34:02.990Z,101890.25
2022-11-15T02:39:31.477Z,101884.19
2022-11-15T02:44:51.492Z,101899.50
2022-11-15T02:50:12.193Z,101902.31
2022-11-15T02:55:31.892Z,101887.06
2022-11-15T03:00:56.994Z,101885.53
2022-11-15T03:06:13.969Z,101887.44
2022-11-15T03:11:29.874Z,101879.47
2022-11-15T03:16:51.056Z,101882.81
2022-11-15T03:22:11.639Z,101873.22
2022-11-15T03:27:31.575Z,101869.56
2022-11-15T03:33:12.391Z,101871.81
2022-11-15T03:38:31.425Z,101868.59
2022-11-15T03:43:53.751Z,101851.31
2022-11-15T03:49:13.064Z,101852.06
2022-11-15T03:54:33.346Z,101847.56
2022-11-15T03:59:53.242Z,101842.22
2022-11-15T04:05:12.539Z,101849.75
2022-11-15T04:10:32.062Z,101836.56
2022-11-15T04:15:49.469Z,101838.59
2022-11-15T04:21:29.957Z,101836.94
2022-11-15T04:26:47.397Z,101838.81
2022-11-15T04:32:07.843Z,101834.16
2022-11-15T04:37:31.596Z,101829.72
2022-11-15T04:42:48.932Z,101822.84
2022-11-15T04:48:08.987Z,101827.94
2022-11-15T04:53:36.553Z,101820.91
2022-11-15T04:58:52.840Z,101822.94
2022-11-15T05:04:22.283Z,101829.94
2022-11-15T05:09:38.581Z,101830.38
2022-11-15T05:14:55.885Z,101820.03
2022-11-15T05:20:13.801Z,101825.00
2022-11-15T05:25:35.579Z,101823.09
2022-11-15T05:30:53.632Z,101817.84
2022-11-15T05:36:21.973Z,101820.16
2022-11-15T05:41:39.401Z,101825.38
2022-11-15T05:46:56.934Z,101827.06
2022-11-15T05:52:17.540Z,101818.53
2022-11-15T05:57:33.806Z,101820.38
2022-11-15T06:02:52.905Z,101830.09
2022-11-15T06:08:09.920Z,101831.56
2022-11-15T06:13:26.255Z,101834.44
2022-11-15T06:18:47.917Z,101825.53
2022-11-15T06:24:06.168Z,101833.09
2022-11-15T06:29:28.713Z,101830.66
2022-11-15T06:34:48.269Z,101833.94
2022-11-15T06:40:05.835Z,101837.91
2022-11-15T06:45:23.243Z,101834.69
2022-11-15T06:50:40.578Z,101841.50
2022-11-15T06:56:02.813Z,101832.34
2022-11-15T07:01:23.468Z,101832.25
2022-11-15T07:06:40.203Z,101832.75
2022-11-15T07:11:57.674Z,101828.53
2022-11-15T07:17:17.857Z,101825.59
2022-11-15T07:22:36.905Z,101821.31
2022-11-15T07:27:58.207Z,101811.44
2022-11-15T07:33:15.921Z,101815.13
2022-11-15T07:38:40.975Z,101813.63
2022-11-15T07:44:03.079Z,101809.81
2022-11-15T07:49:21.282Z,101806.56
2022-11-15T07:54:44.928Z,101802.16
2022-11-15T08:00:04.368Z,101801.88
2022-11-15T08:05:25.021Z,101800.53
2022-11-15T08:10:45.006Z,101803.69
2022-11-15T08:16:03.324Z,101806.47
2022-11-15T08:21:24.380Z,101794.50
2022-11-15T08:26:41.390Z,101776.22
2022-11-15T08:32:02.078Z,101787.75
2022-11-15T08:37:19.925Z,101790.63
2022-11-15T08:42:37.871Z,101783.53
2022-11-15T08:47:54.590Z,101777.31
2022-11-15T08:53:16.101Z,101765.84
2022-11-15T08:58:34.561Z,101765.78
2022-11-15T09:03:54.706Z,101758.41
2022-11-15T09:09:14.618Z,101757.00
2022-11-15T09:14:33.888Z,101752.53
2022-11-15T09:19:50.279Z,101739.72
2022-11-15T09:25:10.995Z,101729.25
2022-11-15T09:30:28.208Z,101727.81
2022-11-15T09:35:48.257Z,101712.34
2022-11-15T09:41:10.651Z,101710.00
2022-11-15T09:46:43.083Z,101699.94
2022-11-15T09:51:53.966Z,101691.59
2022-11-15T09:56:54.948Z,101692.16
2022-11-15T10:02:04.451Z,101694.28
2022-11-15T10:07:25.586Z,101693.78
2022-11-15T10:12:27.151Z,101679.44
2022-11-15T10:17:28.928Z,101675.78
2022-11-15T10:22:30.214Z,101657.38
2022-11-15T10:27:30.917Z,101645.56
2022-11-15T10:32:33.192Z,101634.34
2022-11-15T10:37:34.765Z,101639.13
2022-11-15T10:42:35.203Z,101627.75
2022-11-15T10:47:40.018Z,101614.56
2022-11-15T10:52:49.363Z,101615.53
2022-11-15T10:57:51.681Z,101611.25
2022-11-15T11:02:59.755Z,101608.09
2022-11-15T11:08:03.413Z,101595.75
2022-11-15T11:13:17.087Z,101590.69
2022-11-15T11:18:29.737Z,101582.84
2022-11-15T11:23:43.989Z,101573.66
2022-11-15T11:29:01.736Z,101558.28
2022-11-15T11:34:11.881Z,101553.09
2022-11-15T11:40:06.114Z,101554.03
2022-11-15T11:45:12.572Z,101551.00
2022-11-15T11:50:21.880Z,101545.88
2022-11-15T11:55:20.537Z,101548.53
2022-11-15T12:00:45.385Z,101544.69
2022-11-15T12:06:04.401Z,101537.97
2022-11-15T12:11:22.812Z,101528.50
2022-11-15T12:16:28.917Z,101521.50
2022-11-15T12:21:50.362Z,101513.25
2022-11-15T12:26:55.143Z,101507.03
2022-11-15T12:32:11.612Z,101502.03
2022-11-15T12:37:51.372Z,101495.53
2022-11-15T12:43:01.135Z,101489.38
2022-11-15T12:48:23.702Z,101490.28
2022-11-15T12:53:25.171Z,101481.50
2022-11-15T12:58:27.885Z,101484.50
2022-11-15T13:03:25.959Z,101480.88
2022-11-15T13:08:41.037Z,101465.50
2022-11-15T13:13:44.357Z,101457.66
2022-11-15T13:18:58.317Z,101460.94
2022-11-15T13:24:12.403Z,101453.50
2022-11-15T13:29:35.217Z,101448.19
2022-11-15T13:34:51.707Z,101442.34
2022-11-15T13:40:11.882Z,101433.34
2022-11-15T13:45:18.348Z,101432.28
2022-11-15T13:50:22.260Z,101427.88
2022-11-15T13:55:23.197Z,101423.69
2022-11-15T14:00:42.947Z,101409.03
2022-11-15T14:05:43.348Z,101409.88
2022-11-15T14:10:44.111Z,101408.09
2022-11-15T14:15:43.944Z,101400.69
2022-11-15T14:20:46.121Z,101398.97
2022-11-15T14:25:53.802Z,101398.63
2022-11-15T14:30:57.080Z,101394.09
2022-11-15T14:35:56.104Z,101378.47
2022-11-15T14:41:01.841Z,101369.06
2022-11-15T14:46:03.643Z,101367.28
2022-11-15T14:51:04.564Z,101359.63
2022-11-15T14:56:17.827Z,101357.09
2022-11-15T15:06:56.356Z,101372.75
2022-11-15T15:11:59.804Z,101363.56
2022-11-15T15:17:02.848Z,101362.22
2022-11-15T15:22:01.561Z,101364.56
2022-11-15T15:27:05.246Z,101360.31
2022-11-15T15:32:11.863Z,101349.91
2022-11-15T15:37:27.523Z,101359.22
2022-11-15T15:42:42.848Z,101351.66
2022-11-15T15:47:43.879Z,101348.81
2022-11-15T15:52:51.124Z,101346.34
2022-11-15T15:58:01.159Z,101338.38
2022-11-15T16:03:05.536Z,101325.81
2022-11-15T16:09:00.437Z,101334.69
2022-11-15T16:14:01.625Z,101323.16
2022-11-15T16:19:15.745Z,101325.91
2022-11-15T16:24:15.063Z,101329.44
2022-11-15T16:29:19.680Z,101322.69
2022-11-15T16:34:22.872Z,101330.53
2022-11-15T16:39:42.690Z,101323.97
2022-11-15T16:44:53.405Z,101324.41
2022-11-15T16:50:02.986Z,101323.56
2022-11-15T16:55:06.786Z,101314.69
2022-11-15T17:00:18.905Z,101312.09
2022-11-15T17:05:26.161Z,101310.81
2022-11-15T17:10:55.430Z,101292.31
2022-11-15T17:17:15.256Z,101284.13
2022-11-15T17:22:18.673Z,101286.75
2022-11-15T17:27:27.972Z,101280.53
2022-11-15T17:32:46.066Z,101271.94
2022-11-15T17:37:52.081Z,101259.28
2022-11-15T17:43:08.802Z,101262.44
2022-11-15T17:48:10.378Z,101254.91
2022-11-15T17:53:10.273Z,101247.25
2022-11-15T17:58:11.777Z,101252.31
2022-11-15T18:03:18.882Z,101255.16
2022-11-15T18:08:30.835Z,101248.78
2022-11-15T18:19:25.602Z,101234.78
2022-11-15T18:25:12.336Z,101243.66
2022-11-15T18:30:36.272Z,101232.47
2022-11-15T18:35:50.532Z,101228.47
2022-11-15T18:40:56.526Z,101228.88
2022-11-15T18:46:27.663Z,101226.84
2022-11-15T18:51:50.486Z,101219.72
2022-11-15T18:56:59.783Z,101216.56
2022-11-15T19:02:05.360Z,101214.41
2022-11-15T19:07:20.702Z,101212.19
2022-11-15T19:12:25.358Z,101201.88
2022-11-15T19:17:33.576Z,101193.00
2022-11-15T19:22:35.136Z,101195.34
2022-11-15T19:27:45.730Z,101190.38
2022-11-15T19:33:05.205Z,101176.69
2022-11-15T19:38:24.669Z,101167.13
2022-11-15T19:43:27.666Z,101159.31
2022-11-15T19:48:28.931Z,101149.94
2022-11-15T19:53:35.131Z,101153.72
2022-11-15T19:59:01.085Z,101150.53
2022-11-15T20:04:05.186Z,101143.53
2022-11-15T20:09:06.066Z,101151.50
2022-11-15T20:14:09.927Z,101137.25
2022-11-15T20:19:09.175Z,101138.38
2022-11-15T20:24:10.383Z,101133.72
2022-11-15T20:29:12.877Z,101128.53
2022-11-15T20:34:15.985Z,101129.50
2022-11-15T20:39:17.523Z,101118.09
2022-11-15T20:44:16.130Z,101108.66
2022-11-15T20:49:19.581Z,101101.56
2022-11-15T20:54:30.806Z,101097.00
2022-11-15T21:05:22.854Z,101103.31
2022-11-15T21:10:48.215Z,101096.03
2022-11-15T21:15:48.593Z,101096.19
2022-11-15T21:20:53.752Z,101081.56
2022-11-15T21:25:58.163Z,101075.34
2022-11-15T21:31:12.858Z,101073.88
2022-11-15T21:36:17.871Z,101071.53
2022-11-15T21:41:17.120Z,101059.72
2022-11-15T21:46:23.881Z,101051.91
2022-11-15T21:51:24.887Z,101038.38
2022-11-15T21:56:27.001Z,101037.59
2022-11-15T22:01:47.889Z,101022.13
2022-11-15T22:06:47.250Z,101029.66
2022-11-15T22:11:54.296Z,101015.59
2022-11-15T22:16:56.708Z,101012.84
2022-11-15T22:22:00.260Z,101003.00
2022-11-15T22:27:01.582Z,100995.78
2022-11-15T22:32:09.758Z,100991.19
2022-11-15T22:37:20.694Z,100992.38
2022-11-15T22:42:29.600Z,100977.88
2022-11-15T22:47:32.032Z,100981.69
2022-11-15T22:52:39.071Z,100969.00
2022-11-15T22:57:48.068Z,100954.94
2022-11-15T23:02:53.326Z,100946.88
2022-11-15T23:08:02.130Z,100941.53
2022-11-15T23:13:18.266Z,100930.34
2022-11-15T23:18:27.241Z,100919.81
2022-11-15T23:23:32.218Z,100917.63
2022-11-15T23:28:35.052Z,100917.78
2022-11-15T23:33:56.988Z,100912.59
2022-11-15T23:38:59.189Z,100904.38
2022-11-15T23:44:05.556Z,100901.50
2022-11-15T23:49:11.664Z,100897.13
2022-11-15T23:54:17.742Z,100892.47
2022-11-15T23:59:20.670Z,100899.44
